createdAt,value
2018-06-03T00:00:39.251Z,21.4
2018-06-03T00:01:40.444Z,21.5
2018-06-03T00:02:41.727Z,21.4
2018-06-03T00:03:43.288Z,21.5
2018-06-03T00:04:44.443Z,21.4
2018-06-03T00:05:45.635Z,21.4
2018-06-03T00:06:46.836Z,21.1
2018-06-03T00:07:50.709Z,21
2018-06-03T00:08:56.939Z,21
2018-06-03T00:09:58.122Z,20.9
2018-06-03T00:10:59.291Z,20.6
2018-06-03T00:12:00.472Z,20.4
2018-06-03T00:13:04.294Z,20.2
2018-06-03T00:14:05.511Z,20.1
2018-06-03T00:15:06.681Z,20.1
2018-06-03T00:16:07.855Z,20.3
2018-06-03T00:17:10.891Z,20.2
2018-06-03T00:18:12.275Z,20.3
2018-06-03T00:19:15.485Z,20.4
2018-06-03T00:20:16.671Z,20.6
2018-06-03T00:21:20.395Z,20.8
2018-06-03T00:22:21.558Z,20.9
2018-06-03T00:23:22.763Z,21
2018-06-03T00:24:26.201Z,21
2018-06-03T00:25:27.371Z,21
2018-06-03T00:26:28.535Z,21
2018-06-03T00:27:29.714Z,21
2018-06-03T00:28:30.922Z,21
2018-06-03T00:29:32.144Z,21
2018-06-03T00:30:33.380Z,21
2018-06-03T00:31:34.638Z,20.9
2018-06-03T00:32:35.875Z,20.8
2018-06-03T00:33:37.070Z,20.6
2018-06-03T00:34:38.318Z,20.6
2018-06-03T00:35:39.538Z,20.6
2018-06-03T00:36:40.707Z,20.8
2018-06-03T00:37:41.921Z,20.8
2018-06-03T00:38:43.115Z,20.8
2018-06-03T00:39:44.409Z,20.8
2018-06-03T00:40:45.550Z,20.6
2018-06-03T00:41:46.702Z,20.4
2018-06-03T00:42:47.914Z,20.1
2018-06-03T00:43:49.102Z,20
2018-06-03T00:44:50.300Z,20
2018-06-03T00:45:51.471Z,20
2018-06-03T00:46:52.637Z,19.8
2018-06-03T00:47:53.880Z,20
2018-06-03T00:48:55.057Z,20.1
2018-06-03T00:49:56.269Z,20.1
2018-06-03T00:50:57.467Z,19.9
2018-06-03T00:51:58.634Z,19.6
2018-06-03T00:52:59.890Z,19.4
2018-06-03T00:54:03.847Z,19.1
2018-06-03T00:55:05.131Z,19.1
2018-06-03T00:56:06.415Z,19
2018-06-03T00:57:07.587Z,18.9
2018-06-03T00:58:10.227Z,18.7
2018-06-03T00:59:12.408Z,18.7
2018-06-03T01:00:13.670Z,18.7
2018-06-03T01:01:17.116Z,18.7
2018-06-03T01:02:20.921Z,18.7
2018-06-03T01:03:22.095Z,18.9
2018-06-03T01:04:23.270Z,19
2018-06-03T01:05:24.692Z,18.9
2018-06-03T01:06:25.869Z,18.9
2018-06-03T01:07:27.075Z,19.2
2018-06-03T01:08:28.295Z,19.6
2018-06-03T01:09:29.482Z,19.9
2018-06-03T01:10:30.781Z,20.1
2018-06-03T01:11:31.956Z,20.1
2018-06-03T01:12:33.138Z,20.2
2018-06-03T01:13:34.352Z,20.1
2018-06-03T01:14:35.529Z,20.1
2018-06-03T01:15:36.760Z,20.1
2018-06-03T01:16:37.933Z,20.1
2018-06-03T01:17:39.142Z,20.1
2018-06-03T01:18:40.335Z,20.1
2018-06-03T01:19:41.527Z,20
2018-06-03T01:20:42.760Z,20.1
2018-06-03T01:21:43.993Z,20.1
2018-06-03T01:22:45.178Z,20.1
2018-06-03T01:23:46.369Z,20
2018-06-03T01:24:47.597Z,19.6
2018-06-03T01:25:48.998Z,19.3
2018-06-03T01:26:50.196Z,19.2
2018-06-03T01:27:51.471Z,19
2018-06-03T01:28:52.857Z,18.9
2018-06-03T01:29:54.119Z,19
2018-06-03T01:30:55.376Z,19
2018-06-03T01:31:56.628Z,19.4
2018-06-03T01:32:57.843Z,19.7
2018-06-03T01:33:59.034Z,19.8
2018-06-03T01:35:00.237Z,19.9
2018-06-03T01:36:01.503Z,19.9
2018-06-03T01:37:02.704Z,19.9
2018-06-03T01:38:03.922Z,20
2018-06-03T01:39:05.184Z,19.9
2018-06-03T01:40:06.401Z,19.8
2018-06-03T01:41:07.638Z,19.7
2018-06-03T01:42:08.812Z,19.7
2018-06-03T01:43:10.901Z,19.8
2018-06-03T01:44:12.150Z,19.8
2018-06-03T01:45:13.336Z,19.5
2018-06-03T01:46:14.535Z,19.3
2018-06-03T01:47:15.719Z,19.3
2018-06-03T01:48:16.912Z,19.5
2018-06-03T01:49:18.209Z,19.7
2018-06-03T01:50:19.459Z,19.8
2018-06-03T01:51:20.897Z,19.8
2018-06-03T01:52:22.066Z,19.7
2018-06-03T01:53:23.256Z,19.8
2018-06-03T01:54:24.471Z,19.7
2018-06-03T01:55:25.642Z,19.8
2018-06-03T01:56:26.861Z,19.6
2018-06-03T01:57:28.014Z,19.4
2018-06-03T01:58:29.175Z,19.1
2018-06-03T01:59:30.351Z,18.9
2018-06-03T02:00:31.501Z,18.8
2018-06-03T02:01:32.702Z,18.8
2018-06-03T02:02:34.006Z,18.7
2018-06-03T02:03:35.279Z,18.8
2018-06-03T02:04:36.458Z,18.6
2018-06-03T02:05:37.638Z,18.5
2018-06-03T02:06:38.878Z,18.6
2018-06-03T02:07:40.061Z,19
2018-06-03T02:08:41.306Z,19.3
2018-06-03T02:09:42.755Z,19.3
2018-06-03T02:10:43.956Z,19.5
2018-06-03T02:11:45.168Z,19.6
2018-06-03T02:12:46.342Z,19.7
2018-06-03T02:13:47.502Z,19.7
2018-06-03T02:14:48.701Z,19.7
2018-06-03T02:15:49.925Z,19.7
2018-06-03T02:16:51.185Z,19.7
2018-06-03T02:17:52.347Z,19.7
2018-06-03T02:18:53.546Z,19.7
2018-06-03T02:19:54.732Z,19.7
2018-06-03T02:20:55.908Z,19.6
2018-06-03T02:21:57.168Z,19.3
2018-06-03T02:22:58.356Z,19.1
2018-06-03T02:23:59.536Z,19.1
2018-06-03T02:25:00.720Z,19.4
2018-06-03T02:26:01.964Z,19.5
2018-06-03T02:27:03.172Z,19.6
2018-06-03T02:28:04.353Z,19.5
2018-06-03T02:29:05.916Z,18.9
2018-06-03T02:30:07.109Z,18.7
2018-06-03T02:31:08.366Z,18.8
2018-06-03T02:32:09.633Z,18.8
2018-06-03T02:33:10.801Z,18.8
2018-06-03T02:34:11.993Z,19
2018-06-03T02:35:13.179Z,19.3
2018-06-03T02:36:14.424Z,19.3
2018-06-03T02:37:15.859Z,19.5
2018-06-03T02:38:17.178Z,19.5
2018-06-03T02:39:18.449Z,19.5
2018-06-03T02:40:19.641Z,19.5
2018-06-03T02:41:20.840Z,19.5
2018-06-03T02:42:22.038Z,19.6
2018-06-03T02:43:23.230Z,19.6
2018-06-03T02:44:24.488Z,19.5
2018-06-03T02:45:25.658Z,19.4
2018-06-03T02:46:26.832Z,19.4
2018-06-03T02:47:28.087Z,19.3
2018-06-03T02:48:29.251Z,19.1
2018-06-03T02:49:30.400Z,19.2
2018-06-03T02:50:31.571Z,19.3
2018-06-03T02:51:32.812Z,19.4
2018-06-03T02:52:34.090Z,19.5
2018-06-03T02:53:35.250Z,19.5
2018-06-03T02:54:36.474Z,19.4
2018-06-03T02:55:37.979Z,19.3
2018-06-03T02:56:39.350Z,19.2
2018-06-03T02:57:40.594Z,19
2018-06-03T02:58:41.773Z,18.9
2018-06-03T02:59:42.951Z,18.8
2018-06-03T03:00:44.137Z,18.7
2018-06-03T03:01:45.324Z,18.8
2018-06-03T03:02:46.534Z,18.8
2018-06-03T03:03:47.720Z,18.9
2018-06-03T03:04:48.915Z,19.1
2018-06-03T03:05:50.134Z,19.1
2018-06-03T03:06:51.317Z,19.3
2018-06-03T03:07:52.551Z,19.3
2018-06-03T03:08:53.730Z,19.3
2018-06-03T03:09:54.922Z,19.2
2018-06-03T03:10:56.109Z,19.3
2018-06-03T03:11:58.607Z,19.3
2018-06-03T03:12:59.835Z,19
2018-06-03T03:14:00.987Z,18.7
2018-06-03T03:15:02.182Z,18.5
2018-06-03T03:16:03.511Z,18.4
2018-06-03T03:17:04.905Z,18.3
2018-06-03T03:18:06.126Z,18.3
2018-06-03T03:19:07.324Z,18.4
2018-06-03T03:20:08.477Z,18.5
2018-06-03T03:21:09.663Z,18.4
2018-06-03T03:22:12.399Z,18.3
2018-06-03T03:23:15.147Z,18.2
2018-06-03T03:24:16.299Z,18.2
2018-06-03T03:25:17.523Z,18
2018-06-03T03:26:18.766Z,17.9
2018-06-03T03:27:20.387Z,18.1
2018-06-03T03:28:21.680Z,18.4
2018-06-03T03:29:22.879Z,18.7
2018-06-03T03:30:24.088Z,18.7
2018-06-03T03:31:25.314Z,18.9
2018-06-03T03:32:26.467Z,19.1
2018-06-03T03:33:27.733Z,19.1
2018-06-03T03:34:28.936Z,19.2
2018-06-03T03:35:30.116Z,19.1
2018-06-03T03:36:31.274Z,19.1
2018-06-03T03:37:32.432Z,19.1
2018-06-03T03:38:33.960Z,19.1
2018-06-03T03:39:35.213Z,19.1
2018-06-03T03:40:36.371Z,19.1
2018-06-03T03:41:37.531Z,19
2018-06-03T03:42:38.700Z,19.1
2018-06-03T03:43:39.897Z,19.1
2018-06-03T03:44:41.094Z,19.1
2018-06-03T03:45:42.287Z,19.2
2018-06-03T03:46:43.470Z,19
2018-06-03T03:47:44.636Z,19.1
2018-06-03T03:48:45.856Z,18.9
2018-06-03T03:49:47.022Z,19
2018-06-03T03:50:48.178Z,19
2018-06-03T03:51:49.354Z,18.8
2018-06-03T03:52:50.552Z,18.7
2018-06-03T03:53:51.796Z,18.6
2018-06-03T03:54:52.983Z,18.8
2018-06-03T03:55:54.141Z,18.9
2018-06-03T03:56:55.967Z,19
2018-06-03T03:57:57.599Z,19
2018-06-03T03:58:58.851Z,18.7
2018-06-03T04:00:00.016Z,18.4
2018-06-03T04:01:01.216Z,18.4
2018-06-03T04:02:02.363Z,18.7
2018-06-03T04:03:03.619Z,18.8
2018-06-03T04:04:04.913Z,19
2018-06-03T04:05:06.098Z,19.1
2018-06-03T04:06:07.272Z,19.1
2018-06-03T04:07:08.435Z,19
2018-06-03T04:08:09.634Z,18.8
2018-06-03T04:09:10.859Z,18.6
2018-06-03T04:10:12.034Z,18.6
2018-06-03T04:11:13.225Z,18.6
2018-06-03T04:12:14.377Z,18.8
2018-06-03T04:13:15.593Z,18.7
2018-06-03T04:14:16.833Z,18.6
2018-06-03T04:15:18.002Z,18.6
2018-06-03T04:16:19.185Z,18.5
2018-06-03T04:17:20.369Z,18.4
2018-06-03T04:18:21.566Z,18.3
2018-06-03T04:19:22.937Z,18
2018-06-03T04:20:25.166Z,17.9
2018-06-03T04:21:26.339Z,17.9
2018-06-03T04:22:27.482Z,17.9
2018-06-03T04:23:28.678Z,17.9
2018-06-03T04:24:30.067Z,18.2
2018-06-03T04:25:31.245Z,18.3
2018-06-03T04:26:32.434Z,18.4
2018-06-03T04:27:33.592Z,18.4
2018-06-03T04:28:34.742Z,18.3
2018-06-03T04:29:35.975Z,18.4
2018-06-03T04:30:37.193Z,18.3
2018-06-03T04:31:38.360Z,18.3
2018-06-03T04:32:39.810Z,18.3
2018-06-03T04:33:41.225Z,18.7
2018-06-03T04:34:42.503Z,18.8
2018-06-03T04:35:43.692Z,19
2018-06-03T04:36:44.866Z,19.1
2018-06-03T04:37:46.008Z,19.2
2018-06-03T04:38:47.170Z,19.3
2018-06-03T04:39:48.591Z,19.1
2018-06-03T04:40:49.789Z,19.1
2018-06-03T04:41:50.955Z,19.2
2018-06-03T04:42:52.156Z,19.2
2018-06-03T04:43:53.339Z,19.3
2018-06-03T04:44:54.563Z,19.3
2018-06-03T04:45:55.749Z,19.4
2018-06-03T04:46:57.027Z,19.4
2018-06-03T04:47:58.327Z,19.5
2018-06-03T04:48:59.474Z,19.5
2018-06-03T04:50:00.712Z,19.5
2018-06-03T04:51:01.917Z,19.5
2018-06-03T04:52:03.117Z,19.5
2018-06-03T04:53:04.307Z,19.4
2018-06-03T04:54:05.474Z,19.4
2018-06-03T04:55:06.698Z,19.4
2018-06-03T04:56:07.876Z,19.4
2018-06-03T04:57:09.051Z,19.4
2018-06-03T04:58:10.228Z,19.6
2018-06-03T04:59:11.406Z,19.7
2018-06-03T05:00:12.668Z,19.8
2018-06-03T05:01:13.847Z,19.8
2018-06-03T05:02:15.019Z,19.9
2018-06-03T05:03:16.211Z,19.9
2018-06-03T05:04:17.428Z,20
2018-06-03T05:05:18.627Z,20
2018-06-03T05:06:20.126Z,20.1
2018-06-03T05:07:21.406Z,20.1
2018-06-03T05:08:22.603Z,20.2
2018-06-03T05:09:23.754Z,20.3
2018-06-03T05:10:24.979Z,20.3
2018-06-03T05:11:26.169Z,20.3
2018-06-03T05:12:27.358Z,20.4
2018-06-03T05:13:28.526Z,20.4
2018-06-03T05:14:29.680Z,20.4
2018-06-03T05:15:30.873Z,20.4
2018-06-03T05:16:32.072Z,20.5
2018-06-03T05:17:33.387Z,20.5
2018-06-03T05:18:34.726Z,20.5
2018-06-03T05:19:35.918Z,20.5
2018-06-03T05:20:37.122Z,20.5
2018-06-03T05:21:38.309Z,20.5
2018-06-03T05:22:39.561Z,20.6
2018-06-03T05:23:40.733Z,20.7
2018-06-03T05:24:41.938Z,20.8
2018-06-03T05:25:43.370Z,20.8
2018-06-03T05:26:44.564Z,20.8
2018-06-03T05:27:45.738Z,20.9
2018-06-03T05:28:46.915Z,20.9
2018-06-03T05:29:48.087Z,20.9
2018-06-03T05:30:49.310Z,20.8
2018-06-03T05:31:50.479Z,20.7
2018-06-03T05:32:51.633Z,20.7
2018-06-03T05:33:52.808Z,20.7
2018-06-03T05:34:53.989Z,20.7
2018-06-03T05:35:55.165Z,20.8
2018-06-03T05:36:56.315Z,20.8
2018-06-03T05:37:57.460Z,20.8
2018-06-03T05:38:58.625Z,20.9
2018-06-03T05:39:59.811Z,20.8
2018-06-03T05:41:01.123Z,20.7
2018-06-03T05:42:02.355Z,20.8
2018-06-03T05:43:03.510Z,20.9
2018-06-03T05:44:04.691Z,21.1
2018-06-03T05:45:05.894Z,21
2018-06-03T05:46:07.082Z,21.1
2018-06-03T05:47:08.263Z,20.9
2018-06-03T05:48:09.473Z,21.1
2018-06-03T05:49:10.651Z,21.1
2018-06-03T05:50:11.827Z,21
2018-06-03T05:51:13.023Z,21
2018-06-03T05:52:14.188Z,21.1
2018-06-03T05:53:15.464Z,21.1
2018-06-03T05:54:16.647Z,21.1
2018-06-03T05:55:17.826Z,21.1
2018-06-03T05:56:19.393Z,21.1
2018-06-03T05:57:20.767Z,21.4
2018-06-03T05:58:21.934Z,21.5
2018-06-03T05:59:23.347Z,21.5
2018-06-03T06:00:24.708Z,21.4
2018-06-03T06:01:25.926Z,21.5
2018-06-03T06:02:27.096Z,21.6
2018-06-03T06:03:28.289Z,21.6
2018-06-03T06:04:29.439Z,21.5
2018-06-03T06:05:30.655Z,21.6
2018-06-03T06:06:31.886Z,21.5
2018-06-03T06:07:33.045Z,21.4
2018-06-03T06:08:34.207Z,21.6
2018-06-03T06:09:35.422Z,21.6
2018-06-03T06:10:36.714Z,21.7
2018-06-03T06:11:37.939Z,21.6
2018-06-03T06:12:39.118Z,21.6
2018-06-03T06:13:40.314Z,21.6
2018-06-03T06:14:41.481Z,21.4
2018-06-03T06:15:42.696Z,21.5
2018-06-03T06:16:44.283Z,21.5
2018-06-03T06:17:45.566Z,21.6
2018-06-03T06:18:46.745Z,21.6
2018-06-03T06:19:47.899Z,21.7
2018-06-03T06:20:49.049Z,21.7
2018-06-03T06:21:50.296Z,21.8
2018-06-03T06:22:51.504Z,21.7
2018-06-03T06:23:53.790Z,21.8
2018-06-03T06:24:54.971Z,21.6
2018-06-03T06:25:56.214Z,21.7
2018-06-03T06:26:57.453Z,21.7
2018-06-03T06:27:58.645Z,21.7
2018-06-03T06:28:59.839Z,21.7
2018-06-03T06:30:02.567Z,21.8
2018-06-03T06:31:03.807Z,21.8
2018-06-03T06:32:04.996Z,21.8
2018-06-03T06:33:06.211Z,21.8
2018-06-03T06:34:07.383Z,21.8
2018-06-03T06:35:08.583Z,21.8
2018-06-03T06:36:09.748Z,21.9
2018-06-03T06:37:11.008Z,21.9
2018-06-03T06:38:14.886Z,21.8
2018-06-03T06:39:16.109Z,21.9
2018-06-03T06:40:17.297Z,22
2018-06-03T06:41:18.502Z,21.9
2018-06-03T06:42:19.748Z,21.9
2018-06-03T06:43:20.919Z,21.9
2018-06-03T06:44:22.111Z,22
2018-06-03T06:45:23.315Z,21.9
2018-06-03T06:46:24.504Z,21.9
2018-06-03T06:47:25.796Z,21.9
2018-06-03T06:48:26.993Z,21.7
2018-06-03T06:49:28.234Z,21.9
2018-06-03T06:50:29.437Z,21.9
2018-06-03T06:51:30.904Z,22
2018-06-03T06:52:32.212Z,22
2018-06-03T06:53:33.384Z,22
2018-06-03T06:54:34.588Z,22
2018-06-03T06:55:35.812Z,22
2018-06-03T06:56:36.965Z,21.9
2018-06-03T06:57:38.192Z,22
2018-06-03T06:58:39.402Z,22
2018-06-03T06:59:40.586Z,22.1
2018-06-03T07:00:41.823Z,22.1
2018-06-03T07:01:43.009Z,22.1
2018-06-03T07:02:44.210Z,22.1
2018-06-03T07:03:45.469Z,22.2
2018-06-03T07:04:46.649Z,22.2
2018-06-03T07:05:47.794Z,22.2
2018-06-03T07:06:48.973Z,22.3
2018-06-03T07:07:50.173Z,22.4
2018-06-03T07:08:51.366Z,22.3
2018-06-03T07:09:52.524Z,22.2
2018-06-03T07:10:53.725Z,22.4
2018-06-03T07:11:54.882Z,22.4
2018-06-03T07:12:59.874Z,22.4
2018-06-03T07:14:01.158Z,22.5
2018-06-03T07:15:02.412Z,22.6
2018-06-03T07:16:03.630Z,22.6
2018-06-03T07:17:04.903Z,22.7
2018-06-03T07:18:06.173Z,22.7
2018-06-03T07:19:07.325Z,22.9
2018-06-03T07:20:08.491Z,23
2018-06-03T07:21:09.739Z,23
2018-06-03T07:22:11.037Z,23.1
2018-06-03T07:23:12.299Z,23.1
2018-06-03T07:24:13.446Z,23
2018-06-03T07:25:14.662Z,23.3
2018-06-03T07:26:15.963Z,23.3
2018-06-03T07:27:17.169Z,23.3
2018-06-03T07:28:18.395Z,23.1
2018-06-03T07:29:19.595Z,23.5
2018-06-03T07:30:20.771Z,23.6
2018-06-03T07:31:21.932Z,23.4
2018-06-03T07:32:23.102Z,23.2
2018-06-03T07:33:24.338Z,23.4
2018-06-03T07:34:27.694Z,23.4
2018-06-03T07:35:28.907Z,23.5
2018-06-03T07:36:30.091Z,23.3
2018-06-03T07:37:31.262Z,23.4
2018-06-03T07:38:32.497Z,23.3
2018-06-03T07:39:33.695Z,23.3
2018-06-03T07:40:34.880Z,23.4
2018-06-03T07:41:36.114Z,23.4
2018-06-03T07:42:37.304Z,23.4
2018-06-03T07:43:38.545Z,23.7
2018-06-03T07:44:39.760Z,23.9
2018-06-03T07:45:41.018Z,24
2018-06-03T07:46:42.221Z,24
2018-06-03T07:47:43.393Z,23.9
2018-06-03T07:48:44.613Z,23.7
2018-06-03T07:49:45.799Z,23.7
2018-06-03T07:50:47.003Z,23.7
2018-06-03T07:51:48.216Z,23.7
2018-06-03T07:52:49.413Z,23.7
2018-06-03T07:53:50.651Z,23.7
2018-06-03T07:54:51.854Z,24
2018-06-03T07:55:53.040Z,23.8
2018-06-03T07:56:54.214Z,23.7
2018-06-03T07:57:55.432Z,23.6
2018-06-03T07:58:57.054Z,23.6
2018-06-03T07:59:58.236Z,23.6
2018-06-03T08:00:59.420Z,23.7
2018-06-03T08:02:00.702Z,23.8
2018-06-03T08:03:01.958Z,23.9
2018-06-03T08:04:03.219Z,23.8
2018-06-03T08:05:04.415Z,23.7
2018-06-03T08:06:05.708Z,23.6
2018-06-03T08:07:06.877Z,23.6
2018-06-03T08:08:08.133Z,23.8
2018-06-03T08:09:09.378Z,23.8
2018-06-03T08:10:10.539Z,23.7
2018-06-03T08:11:11.722Z,23.7
2018-06-03T08:12:12.910Z,23.8
2018-06-03T08:13:14.105Z,24.1
2018-06-03T08:14:17.012Z,24
2018-06-03T08:15:18.229Z,23.8
2018-06-03T08:16:20.721Z,24.1
2018-06-03T08:17:22.128Z,24.2
2018-06-03T08:18:23.286Z,24.4
2018-06-03T08:19:24.514Z,24.3
2018-06-03T08:20:25.704Z,24.3
2018-06-03T08:21:26.968Z,24.3
2018-06-03T08:22:28.167Z,24
2018-06-03T08:23:29.339Z,24
2018-06-03T08:24:30.594Z,24.4
2018-06-03T08:25:31.784Z,24.6
2018-06-03T08:26:33.014Z,24.5
2018-06-03T08:27:34.296Z,24.3
2018-06-03T08:28:35.599Z,24
2018-06-03T08:29:36.889Z,24.1
2018-06-03T08:30:38.116Z,24
2018-06-03T08:31:43.011Z,24.1
2018-06-03T08:32:44.208Z,24.1
2018-06-03T08:33:45.404Z,24.1
2018-06-03T08:34:46.735Z,24
2018-06-03T08:35:48.014Z,24
2018-06-03T08:36:49.208Z,24.1
2018-06-03T08:37:50.380Z,24.2
2018-06-03T08:38:51.583Z,24.2
2018-06-03T08:39:52.822Z,24.6
2018-06-03T08:40:54.002Z,24.3
2018-06-03T08:41:55.248Z,24.3
2018-06-03T08:42:56.883Z,24.5
2018-06-03T08:43:58.078Z,24.5
2018-06-03T08:44:59.599Z,24.5
2018-06-03T08:46:00.788Z,24.6
2018-06-03T08:47:02.034Z,24.7
2018-06-03T08:48:03.218Z,25
2018-06-03T08:49:04.414Z,25.3
2018-06-03T08:50:05.680Z,25.4
2018-06-03T08:51:07.464Z,25.3
2018-06-03T08:52:09.171Z,25
2018-06-03T08:53:10.943Z,25
2018-06-03T08:54:12.697Z,24.9
2018-06-03T08:55:13.934Z,24.8
2018-06-03T08:56:15.202Z,24.6
2018-06-03T08:57:16.507Z,24.4
2018-06-03T08:58:24.692Z,24.4
2018-06-03T08:59:26.226Z,24.4
2018-06-03T09:00:27.720Z,24.3
2018-06-03T09:01:28.860Z,24.6
2018-06-03T09:02:30.165Z,24.8
2018-06-03T09:03:31.467Z,25.4
2018-06-03T09:04:32.741Z,25
2018-06-03T09:05:34.045Z,24.9
2018-06-03T09:06:35.239Z,24.9
2018-06-03T09:07:36.511Z,24.8
2018-06-03T09:08:37.835Z,24.8
2018-06-03T09:09:39.204Z,24.9
2018-06-03T09:10:40.614Z,24.9
2018-06-03T09:11:42.837Z,25
2018-06-03T09:12:46.285Z,25
2018-06-03T09:13:47.574Z,25.2
2018-06-03T09:14:48.863Z,24.9
2018-06-03T09:15:50.486Z,24.9
2018-06-03T09:16:51.706Z,24.9
2018-06-03T09:17:52.940Z,25.1
2018-06-03T09:18:54.244Z,25.2
2018-06-03T09:19:55.489Z,25.5
2018-06-03T09:20:56.978Z,25.3
2018-06-03T09:21:58.179Z,25.5
2018-06-03T09:22:59.438Z,25.4
2018-06-03T09:24:00.749Z,25.5
2018-06-03T09:25:02.004Z,25.4
2018-06-03T09:26:03.258Z,25.2
2018-06-03T09:27:04.498Z,25.2
2018-06-03T09:28:09.090Z,25.3
2018-06-03T09:29:12.809Z,25.4
2018-06-03T09:30:14.070Z,25.2
2018-06-03T09:31:19.164Z,25.4
2018-06-03T09:32:20.451Z,25.8
2018-06-03T09:33:22.060Z,25.8
2018-06-03T09:34:27.176Z,25.6
2018-06-03T09:35:30.495Z,25.4
2018-06-03T09:36:35.841Z,25.3
2018-06-03T09:37:37.028Z,25.6
2018-06-03T09:38:38.225Z,25.8
2018-06-03T09:39:39.432Z,25.6
2018-06-03T09:40:40.670Z,25.4
2018-06-03T09:41:41.932Z,25.6
2018-06-03T09:42:43.502Z,25.6
2018-06-03T09:43:44.873Z,25.7
2018-06-03T09:44:46.262Z,25.7
2018-06-03T09:45:47.491Z,25.8
2018-06-03T09:46:49.104Z,25.8
2018-06-03T09:47:51.838Z,25.6
2018-06-03T09:48:53.045Z,25.5
2018-06-03T09:49:54.478Z,25.5
2018-06-03T09:50:55.743Z,25.7
2018-06-03T09:51:57.051Z,25.8
2018-06-03T09:52:58.548Z,25.7
2018-06-03T09:54:00.342Z,25.7
2018-06-03T09:55:03.803Z,25.8
2018-06-03T09:56:05.016Z,25.8
2018-06-03T09:57:06.421Z,25.7
2018-06-03T09:58:07.712Z,25.7
2018-06-03T09:59:09.012Z,26.3
2018-06-03T10:00:10.344Z,26.2
2018-06-03T10:01:11.602Z,26.3
2018-06-03T10:02:12.932Z,26
2018-06-03T10:03:14.212Z,26
2018-06-03T10:04:15.513Z,26
2018-06-03T10:05:19.259Z,25.9
2018-06-03T10:06:20.451Z,25.8
2018-06-03T10:07:23.821Z,25.9
2018-06-03T10:08:25.141Z,26
2018-06-03T10:09:26.380Z,25.8
2018-06-03T10:10:27.681Z,25.8
2018-06-03T10:11:28.854Z,25.8
2018-06-03T10:12:30.109Z,25.8
2018-06-03T10:13:31.336Z,25.9
2018-06-03T10:14:32.553Z,26.2
2018-06-03T10:15:33.754Z,26.3
2018-06-03T10:16:34.931Z,26.3
2018-06-03T10:17:39.278Z,26.6
2018-06-03T10:18:40.594Z,26.8
2018-06-03T10:19:41.805Z,26.5
2018-06-03T10:20:42.968Z,26.3
2018-06-03T10:21:44.165Z,26.2
2018-06-03T10:22:45.477Z,26
2018-06-03T10:23:46.702Z,26.1
2018-06-03T10:24:47.884Z,26.1
2018-06-03T10:25:49.138Z,26.7
2018-06-03T10:26:50.325Z,27
2018-06-03T10:27:51.580Z,26.8
2018-06-03T10:28:52.764Z,26.7
2018-06-03T10:29:53.963Z,26.3
2018-06-03T10:30:55.205Z,26.2
2018-06-03T10:31:56.395Z,26.2
2018-06-03T10:32:57.737Z,26.5
2018-06-03T10:33:58.994Z,26.8
2018-06-03T10:35:00.163Z,26.8
2018-06-03T10:36:01.406Z,27
2018-06-03T10:37:02.707Z,27.1
2018-06-03T10:38:04.270Z,27.2
2018-06-03T10:39:05.499Z,27.1
2018-06-03T10:40:06.807Z,27.1
2018-06-03T10:41:08.392Z,26.6
2018-06-03T10:42:09.924Z,26.6
2018-06-03T10:43:11.374Z,26.6
2018-06-03T10:44:14.560Z,26.4
2018-06-03T10:45:16.209Z,26.3
2018-06-03T10:46:17.479Z,26.7
2018-06-03T10:47:18.713Z,27
2018-06-03T10:48:20.260Z,27.2
2018-06-03T10:49:21.481Z,27
2018-06-03T10:50:22.681Z,26.7
2018-06-03T10:51:24.004Z,26.5
2018-06-03T10:52:26.920Z,26.7
2018-06-03T10:53:31.822Z,26.5
2018-06-03T10:54:32.988Z,26.4
2018-06-03T10:55:34.196Z,26.4
2018-06-03T10:56:35.411Z,26.7
2018-06-03T10:57:36.779Z,26.6
2018-06-03T10:58:38.080Z,26.9
2018-06-03T10:59:39.292Z,26.6
2018-06-03T11:00:40.473Z,26.4
2018-06-03T11:01:41.666Z,26.3
2018-06-03T11:02:42.877Z,26.5
2018-06-03T11:03:44.108Z,26.4
2018-06-03T11:04:45.332Z,26.1
2018-06-03T11:05:46.599Z,26.2
2018-06-03T11:06:47.834Z,26.2
2018-06-03T11:07:49.046Z,26.1
2018-06-03T11:08:50.353Z,26.2
2018-06-03T11:09:51.569Z,26.2
2018-06-03T11:10:52.890Z,26.4
2018-06-03T11:11:54.116Z,26.3
2018-06-03T11:13:00.237Z,26.4
2018-06-03T11:14:01.538Z,26.7
2018-06-03T11:15:05.776Z,27
2018-06-03T11:16:06.998Z,26.9
2018-06-03T11:17:08.219Z,27.1
2018-06-03T11:18:09.471Z,26.8
2018-06-03T11:19:11.040Z,26.9
2018-06-03T11:20:12.339Z,27
2018-06-03T11:21:13.532Z,27
2018-06-03T11:22:16.152Z,26.9
2018-06-03T11:23:17.623Z,26.9
2018-06-03T11:24:18.858Z,26.4
2018-06-03T11:25:20.054Z,26.5
2018-06-03T11:26:21.290Z,26.9
2018-06-03T11:27:22.615Z,27
2018-06-03T11:28:23.854Z,26.8
2018-06-03T11:29:25.258Z,26.7
2018-06-03T11:30:26.605Z,27.1
2018-06-03T11:31:27.826Z,27.2
2018-06-03T11:32:29.050Z,27
2018-06-03T11:33:30.300Z,27.1
2018-06-03T11:34:31.865Z,26.9
2018-06-03T11:35:33.087Z,26.9
2018-06-03T11:36:34.338Z,27
2018-06-03T11:37:35.668Z,27
2018-06-03T11:38:37.038Z,27.1
2018-06-03T11:39:38.341Z,27.1
2018-06-03T11:40:39.607Z,27.2
2018-06-03T11:41:40.910Z,27.4
2018-06-03T11:42:42.217Z,27.6
2018-06-03T11:43:43.497Z,27.3
2018-06-03T11:44:44.997Z,27.3
2018-06-03T11:45:46.297Z,27.1
2018-06-03T11:46:47.490Z,27
2018-06-03T11:47:48.677Z,27.1
2018-06-03T11:48:49.880Z,27.2
2018-06-03T11:49:52.113Z,27.1
2018-06-03T11:50:53.296Z,27.1
2018-06-03T11:51:54.531Z,27
2018-06-03T11:52:55.727Z,27.2
2018-06-03T11:53:57.018Z,27.2
2018-06-03T11:54:58.225Z,27.4
2018-06-03T11:55:59.455Z,27.2
2018-06-03T11:57:00.661Z,27
2018-06-03T11:58:01.904Z,27.2
2018-06-03T11:59:03.131Z,27.2
2018-06-03T12:00:04.327Z,27.2
2018-06-03T12:01:07.943Z,27.1
2018-06-03T12:02:09.110Z,27
2018-06-03T12:03:10.345Z,27.1
2018-06-03T12:04:11.566Z,27.1
2018-06-03T12:05:14.944Z,27.1
2018-06-03T12:06:17.880Z,26.9
2018-06-03T12:07:22.689Z,27
2018-06-03T12:08:23.876Z,27.1
2018-06-03T12:09:25.121Z,27.1
2018-06-03T12:10:26.347Z,27.1
2018-06-03T12:11:27.553Z,27
2018-06-03T12:12:28.752Z,27.1
2018-06-03T12:13:29.964Z,27.2
2018-06-03T12:14:31.191Z,27.2
2018-06-03T12:15:32.431Z,27.2
2018-06-03T12:16:33.590Z,27.1
2018-06-03T12:17:34.833Z,27.1
2018-06-03T12:18:36.169Z,27
2018-06-03T12:19:37.471Z,27.2
2018-06-03T12:20:39.107Z,27.3
2018-06-03T12:21:40.465Z,27.1
2018-06-03T12:22:41.697Z,27.2
2018-06-03T12:23:42.908Z,27.2
2018-06-03T12:24:44.167Z,27.3
2018-06-03T12:25:45.535Z,27.2
2018-06-03T12:26:46.867Z,27.3
2018-06-03T12:27:48.053Z,27.2
2018-06-03T12:28:49.358Z,27.1
2018-06-03T12:29:53.690Z,27.2
2018-06-03T12:30:54.926Z,27.4
2018-06-03T12:31:56.130Z,27.5
2018-06-03T12:32:57.426Z,27.4
2018-06-03T12:33:58.752Z,27.4
2018-06-03T12:35:00.090Z,27.3
2018-06-03T12:36:02.089Z,27.3
2018-06-03T12:37:03.293Z,27.3
2018-06-03T12:38:04.579Z,27.3
2018-06-03T12:39:06.050Z,27.4
2018-06-03T12:40:07.440Z,27.3
2018-06-03T12:41:08.745Z,27.2
2018-06-03T12:42:12.684Z,27.4
2018-06-03T12:43:14.031Z,27.6
2018-06-03T12:44:15.490Z,27.2
2018-06-03T12:45:16.875Z,27.3
2018-06-03T12:46:18.253Z,27.2
2018-06-03T12:47:19.844Z,27.3
2018-06-03T12:48:21.033Z,27.3
2018-06-03T12:49:22.247Z,27.4
2018-06-03T12:50:23.475Z,27.2
2018-06-03T12:51:25.024Z,27.2
2018-06-03T12:52:26.373Z,27
2018-06-03T12:53:33.998Z,27
2018-06-03T12:54:35.399Z,27.2
2018-06-03T12:55:36.633Z,27.3
2018-06-03T12:56:37.984Z,27.2
2018-06-03T12:57:39.212Z,27.3
2018-06-03T12:58:41.891Z,27.4
2018-06-03T12:59:45.763Z,27
2018-06-03T13:00:49.589Z,27
2018-06-03T13:01:51.938Z,27
2018-06-03T13:02:53.941Z,27.1
2018-06-03T13:03:55.147Z,27.5
2018-06-03T13:04:56.547Z,27.4
2018-06-03T13:05:57.905Z,27.4
2018-06-03T13:06:59.196Z,27.3
2018-06-03T13:08:00.566Z,27.3
2018-06-03T13:09:01.876Z,27.4
2018-06-03T13:10:03.114Z,27.4
2018-06-03T13:11:04.343Z,27.4
2018-06-03T13:12:05.601Z,27.4
2018-06-03T13:13:08.526Z,27.4
2018-06-03T13:14:10.423Z,27.3
2018-06-03T13:15:11.853Z,27.2
2018-06-03T13:16:13.097Z,27.3
2018-06-03T13:17:14.585Z,27.3
2018-06-03T13:18:18.813Z,27.4
2018-06-03T13:19:20.024Z,27
2018-06-03T13:20:21.245Z,27.1
2018-06-03T13:21:22.504Z,27.1
2018-06-03T13:22:23.976Z,27.2
2018-06-03T13:23:25.394Z,27.1
2018-06-03T13:24:26.764Z,27.1
2018-06-03T13:25:28.461Z,27.2
2018-06-03T13:26:29.826Z,27.4
2018-06-03T13:27:31.287Z,27.3
2018-06-03T13:28:32.601Z,27.1
2018-06-03T13:29:33.874Z,27.2
2018-06-03T13:30:35.339Z,26.9
2018-06-03T13:31:36.684Z,27
2018-06-03T13:32:40.971Z,27.1
2018-06-03T13:33:42.157Z,27.2
2018-06-03T13:34:43.368Z,27.1
2018-06-03T13:35:44.590Z,27.2
2018-06-03T13:36:45.751Z,27.2
2018-06-03T13:37:47.227Z,27.2
2018-06-03T13:38:48.592Z,27.2
2018-06-03T13:39:49.814Z,27.2
2018-06-03T13:40:51.024Z,27.4
2018-06-03T13:41:52.233Z,27.5
2018-06-03T13:42:53.488Z,27.2
2018-06-03T13:43:54.686Z,27.3
2018-06-03T13:44:55.860Z,27.2